CYYZ

Lester B Pearson International Airport

Toronto, , Canada
METAR CYYZ 191700Z 14005KT 110V190 15SM FEW028 BKN040 BKN260 25/18 A3003 RMK CF1CU5CS2 CF TR SLP170 DENSITY ALT 1700FT
Observed Flight Rules
Aug-19 @ 17:00 UTC (14 minutes ago) Visual Flight Rules
Wind Visibility Clouds
140° at 5 knots 15 miles
  • Few at 2,800' AGL
  • Broken at 4,000' AGL
  • Broken at 26,000' AGL
Temperatures Readings
Current 25°C / 77°F
Dewpoint 18°C / 64°F
Humidity 65%
Altimeter 30.03" Hg
Pressure 1017 hPa
Elevation 173
METAR CYYZ 191700Z 14005KT 110V190 15SM FEW028 BKN040 BKN260 25/18 A3003 RMK CF1CU5CS2 CF TR SLP170 DENSITY ALT 1700FT
Observed Flight Rules
Aug-19 @ 17:00 UTC
(14 minutes ago)
VFR
Wind Visibility
140° at 5 knots 15 miles
Clouds
  • Few at 2,800' AGL
  • Broken at 4,000' AGL
  • Broken at 26,000' AGL
Temperature Dewpoint
25°C / 77°F 18°C / 64°F
Humidity Altimeter Pressure
65% 30.03" Hg 1017 hPa